createdAt,value
2022-08-03T00:02:19.666Z,101122.19
2022-08-03T00:04:48.174Z,101123.03
2022-08-03T00:07:18.290Z,101125.41
2022-08-03T00:09:46.714Z,101121.63
2022-08-03T00:12:15.428Z,101115.88
2022-08-03T00:14:43.857Z,101111.28
2022-08-03T00:17:12.333Z,101123.69
2022-08-03T00:19:40.489Z,101125.16
2022-08-03T00:22:08.637Z,101110.75
2022-08-03T00:24:38.111Z,101112.97
2022-08-03T00:27:06.351Z,101116.13
2022-08-03T00:29:34.618Z,101104.44
2022-08-03T00:32:24.161Z,101112.97
2022-08-03T00:34:58.882Z,101110.19
2022-08-03T00:37:41.030Z,101111.41
2022-08-03T00:40:13.721Z,101110.28
2022-08-03T00:42:50.552Z,101104.94
2022-08-03T00:45:19.565Z,101112.63
2022-08-03T00:47:47.978Z,101111.75
2022-08-03T00:50:16.808Z,101104.94
2022-08-03T00:52:45.650Z,101098.44
2022-08-03T00:55:15.412Z,101101.00
2022-08-03T00:57:44.720Z,101096.97
2022-08-03T01:00:15.473Z,101107.56
2022-08-03T01:02:43.699Z,101094.19
2022-08-03T01:05:12.818Z,101104.13
2022-08-03T01:08:01.184Z,101097.47
2022-08-03T01:10:40.797Z,101096.34
2022-08-03T01:14:01.715Z,101092.56
2022-08-03T01:16:16.429Z,101089.50
2022-08-03T01:18:49.976Z,101088.66
2022-08-03T01:21:27.813Z,101090.44
2022-08-03T01:24:21.674Z,101101.69
2022-08-03T01:27:00.745Z,101092.19
2022-08-03T01:30:03.942Z,101087.19
2022-08-03T01:32:53.557Z,101084.88
2022-08-03T01:35:38.739Z,101085.47
2022-08-03T01:38:12.365Z,101077.78
2022-08-03T01:40:42.441Z,101080.34
2022-08-03T01:43:13.877Z,101079.22
2022-08-03T01:45:44.802Z,101073.78
2022-08-03T01:48:16.836Z,101082.88
2022-08-03T01:50:47.747Z,101075.22
2022-08-03T01:53:18.331Z,101073.91
2022-08-03T01:55:49.654Z,101077.97
2022-08-03T01:58:20.826Z,101078.28
2022-08-03T02:00:52.417Z,101082.38
2022-08-03T02:03:24.229Z,101083.78
2022-08-03T02:06:17.858Z,101081.63
2022-08-03T02:08:45.844Z,101083.38
2022-08-03T02:11:14.360Z,101075.81
2022-08-03T02:13:45.469Z,101084.78
2022-08-03T02:16:15.428Z,101085.78
2022-08-03T02:18:44.264Z,101084.25
2022-08-03T02:21:13.127Z,101085.84
2022-08-03T02:24:01.268Z,101075.50
2022-08-03T02:26:31.345Z,101074.94
2022-08-03T02:29:10.161Z,101070.31
2022-08-03T02:31:41.312Z,101072.03
2022-08-03T02:34:14.307Z,101064.97
2022-08-03T02:36:47.248Z,101073.06
2022-08-03T02:39:18.519Z,101077.78
2022-08-03T02:41:49.936Z,101078.81
2022-08-03T02:44:24.730Z,101081.47
2022-08-03T02:46:58.508Z,101071.41
2022-08-03T02:49:49.670Z,101073.97
2022-08-03T02:52:18.753Z,101070.03
2022-08-03T02:54:49.653Z,101081.44
2022-08-03T02:57:19.360Z,101085.94
2022-08-03T02:59:48.565Z,101086.81
2022-08-03T03:02:19.407Z,101082.97
2022-08-03T03:05:53.625Z,101074.81
2022-08-03T03:07:52.079Z,101075.44
2022-08-03T03:10:22.535Z,101074.34
2022-08-03T03:12:53.317Z,101076.66
2022-08-03T03:15:21.704Z,101077.13
2022-08-03T03:17:54.515Z,101074.84
2022-08-03T03:20:29.420Z,101071.31
2022-08-03T03:23:00.701Z,101075.19
2022-08-03T03:25:31.600Z,101074.47
2022-08-03T03:28:00.336Z,101070.81
2022-08-03T03:30:29.930Z,101080.69
2022-08-03T03:33:00.820Z,101072.91
2022-08-03T03:35:29.475Z,101071.50
2022-08-03T03:37:58.037Z,101071.13
2022-08-03T03:40:26.312Z,101077.75
2022-08-03T03:42:54.677Z,101083.22
2022-08-03T03:45:24.367Z,101080.78
2022-08-03T03:47:52.638Z,101079.59
2022-08-03T03:50:23.758Z,101080.84
2022-08-03T03:52:53.013Z,101075.59
2022-08-03T03:55:21.285Z,101074.38
2022-08-03T03:57:49.490Z,101071.56
2022-08-03T04:00:19.876Z,101075.94
2022-08-03T04:02:48.237Z,101071.56
2022-08-03T04:05:34.052Z,101073.25
2022-08-03T04:08:25.667Z,101069.53
2022-08-03T04:11:02.662Z,101072.00
2022-08-03T04:13:34.791Z,101076.72
2022-08-03T04:16:04.360Z,101067.34
2022-08-03T04:18:36.265Z,101081.41
2022-08-03T04:21:09.509Z,101081.06
2022-08-03T04:23:42.597Z,101084.47
2022-08-03T04:26:14.517Z,101086.53
2022-08-03T04:28:45.960Z,101083.19
2022-08-03T04:31:16.069Z,101074.75
2022-08-03T04:33:45.532Z,101074.47
2022-08-03T04:36:18.308Z,101080.78
2022-08-03T04:38:56.338Z,101075.28
2022-08-03T04:41:26.656Z,101076.50
2022-08-03T04:43:57.124Z,101072.50
2022-08-03T04:46:28.085Z,101075.03
2022-08-03T04:48:57.426Z,101079.09
2022-08-03T04:51:26.490Z,101084.19
2022-08-03T04:53:56.190Z,101079.72
2022-08-03T04:56:24.351Z,101088.22
2022-08-03T04:58:52.597Z,101083.91
2022-08-03T05:01:22.521Z,101082.66
2022-08-03T05:03:51.570Z,101082.78
2022-08-03T05:06:19.688Z,101079.41
2022-08-03T05:08:53.390Z,101086.69
2022-08-03T05:11:22.961Z,101085.16
2022-08-03T05:13:51.223Z,101088.84
2022-08-03T05:16:19.739Z,101082.97
2022-08-03T05:18:47.881Z,101089.53
2022-08-03T05:21:16.882Z,101084.84
2022-08-03T05:23:45.251Z,101086.09
2022-08-03T05:26:13.441Z,101095.34
2022-08-03T05:28:50.843Z,101091.63
2022-08-03T05:31:20.176Z,101087.22
2022-08-03T05:33:49.291Z,101092.34
2022-08-03T05:36:17.826Z,101095.06
2022-08-03T05:38:46.475Z,101093.84
2022-08-03T05:41:22.168Z,101102.84
2022-08-03T05:43:54.623Z,101095.59
2022-08-03T05:46:23.133Z,101100.06
2022-08-03T05:48:52.108Z,101108.88
2022-08-03T05:51:20.423Z,101107.59
2022-08-03T05:53:48.701Z,101099.56
2022-08-03T05:56:17.161Z,101104.63
2022-08-03T05:58:46.367Z,101103.84
2022-08-03T06:01:16.369Z,101098.25
2022-08-03T06:03:45.247Z,101103.00
2022-08-03T06:06:13.798Z,101107.69
2022-08-03T06:08:42.500Z,101100.97
2022-08-03T06:11:10.887Z,101103.22
2022-08-03T06:13:39.689Z,101103.13
2022-08-03T06:16:07.974Z,101105.47
2022-08-03T06:18:38.854Z,101106.19
2022-08-03T06:21:09.700Z,101102.81
2022-08-03T06:23:54.553Z,101097.72
2022-08-03T06:26:28.189Z,101108.03
2022-08-03T06:28:56.657Z,101104.97
2022-08-03T06:31:33.316Z,101100.69
2022-08-03T06:34:33.905Z,101097.53
2022-08-03T06:37:01.353Z,101107.34
2022-08-03T06:39:30.633Z,101101.50
2022-08-03T06:41:59.101Z,101110.31
2022-08-03T06:44:27.370Z,101107.75
2022-08-03T06:46:55.804Z,101114.34
2022-08-03T06:49:25.574Z,101117.53
2022-08-03T06:52:05.914Z,101111.63
2022-08-03T06:54:37.892Z,101113.00
2022-08-03T06:57:08.105Z,101106.13
2022-08-03T07:00:10.829Z,101118.53
2022-08-03T07:02:24.439Z,101113.47
2022-08-03T07:04:58.454Z,101117.16
2022-08-03T07:07:26.630Z,101125.34
2022-08-03T07:09:56.753Z,101122.63
2022-08-03T07:12:26.682Z,101118.53
2022-08-03T07:14:59.991Z,101122.47
2022-08-03T07:17:29.769Z,101109.13
2022-08-03T07:20:00.176Z,101111.06
2022-08-03T07:22:29.403Z,101114.50
2022-08-03T07:24:57.773Z,101124.31
2022-08-03T07:27:28.555Z,101128.44
2022-08-03T07:29:57.633Z,101123.50
2022-08-03T07:32:26.186Z,101124.00
2022-08-03T07:34:59.887Z,101121.63
2022-08-03T07:37:30.709Z,101130.63
2022-08-03T07:39:59.213Z,101119.34
2022-08-03T07:42:27.851Z,101127.41
2022-08-03T07:44:56.881Z,101129.72
2022-08-03T07:47:35.454Z,101111.38
2022-08-03T07:50:06.551Z,101121.91
2022-08-03T07:52:51.749Z,101123.94
2022-08-03T07:55:21.913Z,101122.03
2022-08-03T07:58:00.954Z,101122.19
2022-08-03T08:00:29.155Z,101122.41
2022-08-03T08:02:57.322Z,101117.94
2022-08-03T08:05:25.543Z,101109.44
2022-08-03T08:07:55.449Z,101106.94
2022-08-03T08:10:24.057Z,101115.19
2022-08-03T08:12:52.629Z,101119.81
2022-08-03T08:15:20.888Z,101101.97
2022-08-03T08:17:51.060Z,101117.53
2022-08-03T08:20:27.035Z,101109.38
2022-08-03T08:23:01.852Z,101109.66
2022-08-03T08:25:32.044Z,101106.66
2022-08-03T08:28:22.435Z,101100.63
2022-08-03T08:30:51.103Z,101099.16
2022-08-03T08:33:22.673Z,101107.56
2022-08-03T08:35:53.965Z,101105.38
2022-08-03T08:38:24.185Z,101102.94
2022-08-03T08:40:52.450Z,101090.72
2022-08-03T08:43:20.628Z,101096.19
2022-08-03T08:45:50.800Z,101104.78
2022-08-03T08:48:23.542Z,101094.94
2022-08-03T08:50:54.037Z,101096.63
2022-08-03T08:53:27.605Z,101094.72
2022-08-03T08:56:00.682Z,101101.25
2022-08-03T08:58:37.857Z,101107.06
2022-08-03T09:01:07.464Z,101101.69
2022-08-03T09:03:35.760Z,101105.44
2022-08-03T09:06:04.583Z,101086.09
2022-08-03T09:08:34.640Z,101085.88
2022-08-03T09:11:02.885Z,101094.31
2022-08-03T09:13:31.574Z,101098.66
2022-08-03T09:16:14.466Z,101093.19
2022-08-03T09:18:43.980Z,101093.00
2022-08-03T09:21:31.113Z,101085.66
2022-08-03T09:24:05.135Z,101077.50
2022-08-03T09:26:36.113Z,101085.91
2022-08-03T09:29:11.176Z,101085.94
2022-08-03T09:31:44.685Z,101079.41
2022-08-03T09:34:17.962Z,101073.66
2022-08-03T09:36:48.248Z,101071.22
2022-08-03T09:39:19.373Z,101076.41
2022-08-03T09:41:50.212Z,101080.44
2022-08-03T09:44:25.808Z,101065.88
2022-08-03T09:46:57.058Z,101067.47
2022-08-03T09:49:25.806Z,101056.09
2022-08-03T09:52:32.976Z,101062.53
2022-08-03T09:54:44.530Z,101064.66
2022-08-03T09:57:23.131Z,101073.34
2022-08-03T09:59:58.788Z,101065.09
2022-08-03T10:02:41.530Z,101056.78
2022-08-03T10:05:11.524Z,101060.13
2022-08-03T10:07:49.676Z,101055.91
2022-08-03T10:10:31.142Z,101062.13
2022-08-03T10:13:01.129Z,101052.94
2022-08-03T10:16:23.840Z,101054.94
2022-08-03T10:18:18.164Z,101047.69
2022-08-03T10:20:51.069Z,101046.19
2022-08-03T10:23:19.947Z,101038.53
2022-08-03T10:25:54.350Z,101046.47
2022-08-03T10:28:23.389Z,101037.78
2022-08-03T10:30:53.881Z,101040.72
2022-08-03T10:33:51.512Z,101035.78
2022-08-03T10:36:15.122Z,101033.16
2022-08-03T10:38:52.405Z,101028.03
2022-08-03T10:41:24.299Z,101036.19
2022-08-03T10:43:57.433Z,101026.44
2022-08-03T10:46:28.001Z,101015.13
2022-08-03T10:48:57.501Z,101019.44
2022-08-03T10:51:30.492Z,101023.25
2022-08-03T10:53:59.175Z,101015.97
2022-08-03T10:57:01.123Z,101018.19
2022-08-03T11:00:04.348Z,101005.22
2022-08-03T11:03:06.536Z,101014.28
2022-08-03T11:05:36.879Z,101003.09
2022-08-03T11:08:24.811Z,100998.41
2022-08-03T11:10:55.167Z,100991.97
2022-08-03T11:13:28.273Z,100996.13
2022-08-03T11:16:00.081Z,100997.47
2022-08-03T11:18:31.813Z,100992.78
2022-08-03T11:21:01.511Z,100995.94
2022-08-03T11:24:02.434Z,100999.56
2022-08-03T11:26:32.974Z,101002.03
2022-08-03T11:29:29.026Z,100996.41
2022-08-03T11:31:57.573Z,100986.56
2022-08-03T11:34:25.948Z,100985.63
2022-08-03T11:37:20.456Z,100982.00
2022-08-03T11:39:53.024Z,100988.03
2022-08-03T11:42:47.969Z,100985.56
2022-08-03T11:45:19.839Z,100982.78
2022-08-03T11:47:51.482Z,100974.84
2022-08-03T11:50:21.369Z,100977.03
2022-08-03T11:52:51.163Z,100975.00
2022-08-03T11:55:21.664Z,100974.44
2022-08-03T11:59:17.557Z,100973.34
2022-08-03T12:00:40.590Z,100969.97
2022-08-03T12:03:11.125Z,100970.91
2022-08-03T12:05:51.184Z,100978.06
2022-08-03T12:08:32.535Z,100980.28
2022-08-03T12:11:02.965Z,100972.09
2022-08-03T12:14:35.761Z,100964.38
2022-08-03T12:16:29.577Z,100973.97
2022-08-03T12:18:59.606Z,100965.53
2022-08-03T12:21:28.632Z,100964.75
2022-08-03T12:24:00.912Z,100964.25
2022-08-03T12:26:30.180Z,100957.84
2022-08-03T12:28:58.593Z,100953.63
2022-08-03T12:31:28.091Z,100958.16
2022-08-03T12:33:59.022Z,100951.00
2022-08-03T12:36:28.467Z,100953.84
2022-08-03T12:38:59.966Z,100943.53
2022-08-03T12:41:30.278Z,100940.06
2022-08-03T12:43:58.857Z,100944.59
2022-08-03T12:46:33.694Z,100936.50
2022-08-03T12:49:07.902Z,100930.94
2022-08-03T12:51:38.948Z,100931.69
2022-08-03T12:54:07.881Z,100936.25
2022-08-03T12:56:36.433Z,100931.94
2022-08-03T12:59:34.748Z,100932.63
2022-08-03T13:02:09.414Z,100925.88
2022-08-03T13:04:38.345Z,100926.47
2022-08-03T13:07:14.319Z,100925.00
2022-08-03T13:09:44.336Z,100926.09
2022-08-03T13:12:14.470Z,100925.97
2022-08-03T13:14:43.528Z,100919.50
2022-08-03T13:17:13.446Z,100911.63
2022-08-03T13:19:41.886Z,100919.34
2022-08-03T13:22:14.312Z,100910.78
2022-08-03T13:24:43.961Z,100908.34
2022-08-03T13:28:01.234Z,100901.34
2022-08-03T13:30:01.117Z,100917.91
2022-08-03T13:32:30.802Z,100908.84
2022-08-03T13:34:59.115Z,100914.44
2022-08-03T13:37:27.824Z,100909.38
2022-08-03T13:39:59.423Z,100902.25
2022-08-03T13:42:30.571Z,100895.25
2022-08-03T13:44:59.253Z,100894.19
2022-08-03T13:47:27.651Z,100898.13
2022-08-03T13:50:01.745Z,100886.06
2022-08-03T13:52:32.721Z,100890.72
2022-08-03T13:55:01.430Z,100893.16
2022-08-03T13:58:02.243Z,100888.94
2022-08-03T14:00:28.014Z,100883.38
2022-08-03T14:03:05.229Z,100882.25
2022-08-03T14:05:38.260Z,100881.06
2022-08-03T14:08:07.664Z,100884.69
2022-08-03T14:10:38.460Z,100876.84
2022-08-03T14:13:07.418Z,100879.91
2022-08-03T14:15:37.913Z,100872.09
2022-08-03T14:18:15.540Z,100883.44
2022-08-03T14:20:50.136Z,100873.25
2022-08-03T14:23:22.478Z,100879.66
2022-08-03T14:25:52.322Z,100875.59
2022-08-03T14:28:22.534Z,100868.81
2022-08-03T14:30:51.409Z,100870.81
2022-08-03T14:33:19.761Z,100877.34
2022-08-03T14:35:50.027Z,100867.00
2022-08-03T14:38:18.953Z,100871.13
2022-08-03T14:40:47.443Z,100868.25
2022-08-03T14:43:17.800Z,100863.94
2022-08-03T14:45:46.065Z,100861.84
2022-08-03T14:50:33.508Z,100862.19
2022-08-03T14:51:04.050Z,100860.59
2022-08-03T14:53:32.245Z,100861.72
2022-08-03T14:56:00.414Z,100867.94
2022-08-03T14:58:28.610Z,100863.44
2022-08-03T15:00:57.041Z,100866.38
2022-08-03T15:03:26.041Z,100865.94
2022-08-03T15:05:56.347Z,100861.25
2022-08-03T15:08:27.098Z,100854.78
2022-08-03T15:10:56.003Z,100849.00
2022-08-03T15:13:25.327Z,100841.50
2022-08-03T15:15:53.690Z,100835.50
2022-08-03T15:18:21.843Z,100841.34
2022-08-03T15:20:50.870Z,100836.25
2022-08-03T15:23:19.720Z,100835.25
2022-08-03T15:26:29.636Z,100829.41
2022-08-03T15:28:37.739Z,100809.38
2022-08-03T15:31:06.806Z,100798.00
2022-08-03T15:33:35.219Z,100814.19
2022-08-03T15:36:04.359Z,100814.78
2022-08-03T15:38:32.527Z,100797.97
2022-08-03T15:41:02.353Z,100817.75
2022-08-03T15:43:30.548Z,100804.72
2022-08-03T15:46:28.373Z,100813.63
2022-08-03T15:48:47.804Z,100800.44
2022-08-03T15:51:16.037Z,100796.53
2022-08-03T15:53:44.293Z,100795.84
2022-08-03T15:56:18.259Z,100806.63
2022-08-03T15:59:09.446Z,100796.72
2022-08-03T16:01:35.695Z,100786.59
2022-08-03T16:04:04.426Z,100794.63
2022-08-03T16:06:36.086Z,100788.03
2022-08-03T16:09:23.810Z,100787.59
2022-08-03T16:11:56.828Z,100796.47
2022-08-03T16:14:34.235Z,100801.09
2022-08-03T16:17:04.746Z,100800.63
2022-08-03T16:19:32.901Z,100800.41
2022-08-03T16:22:01.741Z,100799.75
2022-08-03T16:24:32.038Z,100786.38
2022-08-03T16:27:01.686Z,100781.47
2022-08-03T16:29:30.300Z,100779.53
2022-08-03T16:31:58.505Z,100782.47
2022-08-03T16:34:26.742Z,100779.59
2022-08-03T16:36:55.590Z,100782.03
2022-08-03T16:39:23.907Z,100781.72
2022-08-03T16:41:53.557Z,100780.72
2022-08-03T16:44:32.073Z,100784.56
2022-08-03T16:47:00.752Z,100787.75
2022-08-03T16:49:54.219Z,100797.72
2022-08-03T16:52:18.052Z,100800.25
2022-08-03T16:54:52.804Z,100799.53
2022-08-03T16:57:58.213Z,100796.63
2022-08-03T17:00:32.880Z,100793.59
2022-08-03T17:03:12.470Z,100793.03
2022-08-03T17:05:48.242Z,100800.00
2022-08-03T17:08:26.651Z,100794.34
2022-08-03T17:10:56.426Z,100802.59
2022-08-03T17:13:27.687Z,100802.13
2022-08-03T17:16:12.162Z,100801.69
2022-08-03T17:18:52.002Z,100804.84
2022-08-03T17:21:26.470Z,100816.59
2022-08-03T17:24:04.135Z,100802.75
2022-08-03T17:26:35.233Z,100809.91
2022-08-03T17:29:11.106Z,100816.38
2022-08-03T17:31:49.282Z,100812.09
2022-08-03T17:34:18.777Z,100811.97
2022-08-03T17:37:05.412Z,100808.84
2022-08-03T17:40:04.671Z,100821.56
2022-08-03T17:42:39.143Z,100818.25
2022-08-03T17:45:08.815Z,100821.72
2022-08-03T17:47:45.822Z,100826.38
2022-08-03T17:50:35.833Z,100820.09
2022-08-03T17:53:15.394Z,100824.44
2022-08-03T17:56:04.879Z,100820.34
2022-08-03T17:58:56.635Z,100821.72
2022-08-03T18:02:00.629Z,100828.84
2022-08-03T18:04:42.603Z,100823.03
2022-08-03T18:07:12.533Z,100821.69
2022-08-03T18:10:03.278Z,100827.06
2022-08-03T18:12:45.811Z,100831.75
2022-08-03T18:15:25.113Z,100832.63
2022-08-03T18:18:01.881Z,100840.66
2022-08-03T18:20:41.166Z,100831.19
2022-08-03T18:23:25.344Z,100831.41
2022-08-03T18:26:02.271Z,100837.50
2022-08-03T18:28:34.699Z,100854.06
2022-08-03T18:31:05.988Z,100851.31
2022-08-03T18:34:17.949Z,100844.31
2022-08-03T18:36:30.444Z,100850.19
2022-08-03T18:39:02.698Z,100852.63
2022-08-03T18:41:34.365Z,100859.31
2022-08-03T18:44:06.643Z,100853.38
2022-08-03T18:46:46.725Z,100850.69
2022-08-03T18:49:36.786Z,100843.81
2022-08-03T18:55:19.697Z,100853.50
2022-08-03T18:57:53.166Z,100852.91
2022-08-03T19:00:24.449Z,100860.97
2022-08-03T19:03:12.419Z,100856.41
2022-08-03T19:06:13.268Z,100869.09
2022-08-03T19:08:50.156Z,100864.31
2022-08-03T19:11:28.163Z,100861.81
2022-08-03T19:13:59.214Z,100870.63
2022-08-03T19:16:34.299Z,100871.78
2022-08-03T19:19:03.079Z,100861.53
2022-08-03T19:21:34.464Z,100865.47
2022-08-03T19:24:09.640Z,100871.47
2022-08-03T19:26:39.573Z,100869.72
2022-08-03T19:29:14.785Z,100861.50
2022-08-03T19:31:59.118Z,100870.09
2022-08-03T19:34:30.382Z,100863.50
2022-08-03T19:36:59.102Z,100867.44
2022-08-03T19:39:29.382Z,100867.53
2022-08-03T19:42:10.997Z,100869.31
2022-08-03T19:44:52.047Z,100861.00
2022-08-03T19:47:28.132Z,100868.75
2022-08-03T19:50:10.581Z,100871.19
2022-08-03T19:52:44.001Z,100873.47
2022-08-03T19:55:13.504Z,100870.47
2022-08-03T19:57:45.611Z,100871.84
2022-08-03T20:00:19.218Z,100875.53
2022-08-03T20:02:50.782Z,100868.03
2022-08-03T20:05:19.457Z,100870.84
2022-08-03T20:07:48.607Z,100875.75
2022-08-03T20:10:19.320Z,100881.25
2022-08-03T20:12:49.456Z,100880.69
2022-08-03T20:15:30.831Z,100880.47
2022-08-03T20:18:00.781Z,100880.78
2022-08-03T20:20:32.600Z,100874.66
2022-08-03T20:23:06.787Z,100885.06
2022-08-03T20:25:57.172Z,100875.94
2022-08-03T20:28:31.997Z,100877.69
2022-08-03T20:31:01.974Z,100868.25
2022-08-03T20:33:46.725Z,100872.34
2022-08-03T20:36:18.250Z,100874.72
2022-08-03T20:38:48.050Z,100871.97
2022-08-03T20:41:18.403Z,100868.66
2022-08-03T20:43:49.278Z,100873.03
2022-08-03T20:46:29.630Z,100868.81
2022-08-03T20:49:03.832Z,100875.97
2022-08-03T20:51:50.604Z,100867.88
2022-08-03T20:54:30.491Z,100870.72
2022-08-03T20:57:03.716Z,100867.72
2022-08-03T20:59:46.874Z,100877.16
2022-08-03T21:02:29.603Z,100883.69
2022-08-03T21:05:03.199Z,100879.81
2022-08-03T21:08:05.548Z,100873.25
2022-08-03T21:10:31.256Z,100872.03
2022-08-03T21:13:10.803Z,100841.16
2022-08-03T21:13:15.922Z,100871.38
2022-08-03T21:16:12.512Z,100870.03
2022-08-03T21:18:38.052Z,100871.91
2022-08-03T21:21:08.709Z,100876.78
2022-08-03T21:23:49.166Z,100873.09
2022-08-03T21:26:19.871Z,100879.84
2022-08-03T21:28:51.477Z,100874.09
2022-08-03T21:31:25.553Z,100874.28
2022-08-03T21:33:56.770Z,100876.81
2022-08-03T21:36:27.720Z,100881.84
2022-08-03T21:38:57.731Z,100875.75
2022-08-03T21:41:27.212Z,100873.66
2022-08-03T21:43:57.380Z,100872.38
2022-08-03T21:46:27.749Z,100869.66
2022-08-03T21:50:05.845Z,100864.91
2022-08-03T21:51:50.407Z,100876.72
2022-08-03T21:54:21.581Z,100867.38
2022-08-03T21:56:51.980Z,100868.59
2022-08-03T21:59:24.074Z,100871.91
2022-08-03T22:01:55.359Z,100866.84
2022-08-03T22:04:45.922Z,100866.94
2022-08-03T22:07:16.608Z,100863.19
2022-08-03T22:09:50.975Z,100871.50
2022-08-03T22:12:23.625Z,100870.31
2022-08-03T22:15:01.251Z,100873.94
2022-08-03T22:17:55.653Z,100867.81
2022-08-03T22:20:21.150Z,100874.88
2022-08-03T22:22:55.707Z,100870.41
2022-08-03T22:25:28.677Z,100877.47
2022-08-03T22:27:59.735Z,100874.91
2022-08-03T22:30:29.450Z,100873.44
2022-08-03T22:32:58.798Z,100875.84
2022-08-03T22:35:28.254Z,100869.72
2022-08-03T22:37:58.322Z,100864.09
2022-08-03T22:40:27.373Z,100876.00
2022-08-03T22:46:08.931Z,100872.88
2022-08-03T22:48:17.743Z,100878.56
2022-08-03T22:50:47.157Z,100876.53
2022-08-03T22:53:21.380Z,100879.94
2022-08-03T22:55:51.235Z,100885.88
2022-08-03T22:58:20.829Z,100888.72
2022-08-03T23:00:54.146Z,100888.53
2022-08-03T23:03:58.658Z,100880.22
2022-08-03T23:06:15.995Z,100882.78
2022-08-03T23:08:47.733Z,100884.59
2022-08-03T23:11:19.463Z,100877.13
2022-08-03T23:13:50.180Z,100885.81
2022-08-03T23:16:29.175Z,100883.91
2022-08-03T23:19:16.341Z,100889.16
2022-08-03T23:22:00.154Z,100888.59
2022-08-03T23:24:30.942Z,100882.34
2022-08-03T23:26:59.389Z,100879.59
2022-08-03T23:29:31.305Z,100875.41
2022-08-03T23:31:59.622Z,100882.91
2022-08-03T23:34:46.884Z,100874.44
2022-08-03T23:37:15.885Z,100873.97
2022-08-03T23:39:47.188Z,100869.38
2022-08-03T23:42:18.019Z,100877.97
2022-08-03T23:44:47.209Z,100867.53
2022-08-03T23:47:15.576Z,100875.75
2022-08-03T23:49:45.173Z,100874.13
2022-08-03T23:52:21.893Z,100879.72
2022-08-03T23:55:03.899Z,100877.38
2022-08-03T23:57:41.917Z,100873.75
